Time;durP1;ratioP1;P1;durP2;ratioP2;P2;SDS_P1;SDS_P2;PMS_P1;PMS_P2;Temp;Humidity;BMP_temperature;BMP_pressure;BME280_temperature;BME280_humidity;BME280_pressure;Samples;Min_cycle;Max_cycle;Signal;HPM_P1;HPM_P2
2023/12/07 00:00:59;;;;;;;;;;;;;;;;;;5136629;27;2019;-67
2023/12/07 00:03:24;;;;;;;;;;;;;;;;;;5101067;27;1339;-67
2023/12/07 00:05:49;;;;;;;;;;;;;;;;;;5136177;27;883;-68
2023/12/07 00:08:18;;;;;;;;;;;;;;;;;;5116642;27;1171;-66
2023/12/07 00:10:44;;;;;;;;;;;;;;;;;;5114799;27;1278;-66
2023/12/07 00:13:10;;;;;;;;;;;;;;;;;;5114990;27;1219;-67
2023/12/07 00:15:36;;;;;;;;;;;;;;;;;;5132870;27;1285;-66
2023/12/07 00:18:02;;;;;;;;;;;;;;;;;;5114352;27;1035;-67
2023/12/07 00:20:28;;;;;;;;;;;;;;;;;;5133727;27;1984;-67
2023/12/07 00:22:53;;;;;;;;;;;;;;;;;;5114126;27;1227;-68
2023/12/07 00:25:18;;;;;;;;;;;;;;;;;;5133128;27;1202;-68
2023/12/07 00:27:44;;;;;;;;;;;;;;;;;;5132500;27;1155;-66
2023/12/07 00:30:09;;;;;;;;;;;;;;;;;;5133074;27;1191;-66
2023/12/07 00:32:35;;;;;;;;;;;;;;;;;;5134023;27;1184;-67
2023/12/07 00:35:00;;;;;;;;;;;;;;;;;;5135844;27;1016;-65
2023/12/07 00:37:27;;;;;;;;;;;;;;;;;;5117516;27;1222;-67
2023/12/07 00:39:52;;;;;;;;;;;;;;;;;;5117422;27;1902;-66
2023/12/07 00:42:18;;;;;;;;;;;;;;;;;;5136376;27;875;-67
2023/12/07 00:44:43;;;;;;;;;;;;;;;;;;5135847;27;920;-67
2023/12/07 00:47:09;;;;;;;;;;;;;;;;;;5136229;27;887;-67
2023/12/07 00:49:37;;;;;;;;;;;;;;;;;;5118051;27;1067;-66
2023/12/07 00:52:02;;;;;;;;;;;;;;;;;;5136026;27;888;-66
2023/12/07 00:54:28;;;;;;;;;;;;;;;;;;5135931;27;1010;-66
2023/12/07 00:56:53;;;;;;;;;;;;;;;;;;5118022;27;1413;-67
2023/12/07 00:59:18;;;;;;;;;;;;;;;;;;5135959;27;1965;-67
2023/12/07 01:01:44;;;;;;;;;;;;;;;;;;5135458;27;880;-65
2023/12/07 01:04:09;;;;;;;;;;;;;;;;;;5117958;27;1893;-67
2023/12/07 01:06:34;;;;;;;;;;;;;;;;;;5117871;27;1345;-66
2023/12/07 01:09:00;;;;;;;;;;;;;;;;;;5136236;27;927;-67
2023/12/07 01:11:25;;;;;;;;;;;;;;;;;;5136213;27;1049;-67
2023/12/07 01:13:50;;;;;;;;;;;;;;;;;;5135866;27;943;-66
2023/12/07 01:16:16;;;;;;;;;;;;;;;;;;5135993;27;817;-67
2023/12/07 01:18:41;;;;;;;;;;;;;;;;;;5135847;27;931;-66
2023/12/07 01:21:06;;;;;;;;;;;;;;;;;;5135905;27;1871;-66
2023/12/07 01:23:32;;;;;;;;;;;;;;;;;;5117130;28;911;-66
2023/12/07 01:25:57;;;;;;;;;;;;;;;;;;5100091;28;978;-66
2023/12/07 01:28:22;;;;;;;;;;;;;;;;;;5135501;28;854;-67
2023/12/07 01:30:48;;;;;;;;;;;;;;;;;;5135847;28;888;-67
2023/12/07 01:33:13;;;;;;;;;;;;;;;;;;5116536;28;1061;-66
2023/12/07 01:35:38;;;;;;;;;;;;;;;;;;5116586;28;1117;-66
2023/12/07 01:38:04;;;;;;;;;;;;;;;;;;5135002;28;686;-66
2023/12/07 01:40:29;;;;;;;;;;;;;;;;;;5116282;28;1913;-66
2023/12/07 01:42:54;;;;;;;;;;;;;;;;;;5116662;28;868;-66
2023/12/07 01:45:20;;;;;;;;;;;;;;;;;;5135174;28;931;-66
2023/12/07 01:47:46;;;;;;;;;;;;;;;;;;5135414;28;816;-66
2023/12/07 01:50:14;;;;;;;;;;;;;;;;;;5135207;28;1010;-66
2023/12/07 01:52:42;;;;;;;;;;;;;;;;;;5134678;28;888;-68
2023/12/07 01:55:10;;;;;;;;;;;;;;;;;;5134670;28;935;-66
2023/12/07 01:57:35;;;;;;;;;;;;;;;;;;5134973;28;923;-68
2023/12/07 02:00:01;;;;;;;;;;;;;;;;;;5116492;28;1870;-69
2023/12/07 02:02:26;;;;;;;;;;;;;;;;;;5135013;28;809;-68
2023/12/07 02:04:52;;;;;;;;;;;;;;;;;;5135068;28;990;-69
2023/12/07 02:07:17;;;;;;;;;;;;;;;;;;5116715;28;1282;-68
2023/12/07 02:09:42;;;;;;;;;;;;;;;;;;5135739;28;872;-69
2023/12/07 02:12:08;;;;;;;;;;;;;;;;;;5136869;27;927;-69
2023/12/07 02:14:34;;;;;;;;;;;;;;;;;;5120574;27;801;-68
2023/12/07 02:17:05;;;;;;;;;;;;;;;;;;5138755;27;883;-68
2023/12/07 02:19:54;;;;;;;;;;;;;;;;;;5139270;27;1889;-68
2023/12/07 02:22:27;;;;;;;;;;;;;;;;;;5139414;27;1207;-69
2023/12/07 02:24:59;;;;;;;;;;;;;;;;;;5119596;27;1644;-69
2023/12/07 02:27:57;;;;;;;;;;;;;;;;;;5138939;27;929;-68
2023/12/07 02:30:22;;;;;;;;;;;;;;;;;;5081866;27;1510;-69
2023/12/07 02:32:48;;;;;;;;;;;;;;;;;;5120482;27;908;-69
2023/12/07 02:35:13;;;;;;;;;;;;;;;;;;5120024;27;1298;-69
2023/12/07 02:37:42;;;;;;;;;;;;;;;;;;5120230;27;1439;-69
2023/12/07 02:40:10;;;;;;;;;;;;;;;;;;5138992;27;1906;-69
2023/12/07 02:42:36;;;;;;;;;;;;;;;;;;5139084;27;840;-69
2023/12/07 02:45:03;;;;;;;;;;;;;;;;;;5119774;27;852;-69
2023/12/07 02:47:28;;;;;;;;;;;;;;;;;;5138375;27;902;-69
2023/12/07 02:49:53;;;;;;;;;;;;;;;;;;5138609;27;840;-69
2023/12/07 02:52:18;;;;;;;;;;;;;;;;;;5138750;27;918;-69
2023/12/07 02:54:44;;;;;;;;;;;;;;;;;;5138825;27;820;-68
2023/12/07 02:57:09;;;;;;;;;;;;;;;;;;5120078;27;1125;-69
2023/12/07 02:59:35;;;;;;;;;;;;;;;;;;5119848;27;1901;-69
2023/12/07 03:02:00;;;;;;;;;;;;;;;;;;5138194;27;899;-69
2023/12/07 03:04:25;;;;;;;;;;;;;;;;;;5119627;27;1260;-69
2023/12/07 03:06:50;;;;;;;;;;;;;;;;;;5137984;27;883;-69
2023/12/07 03:09:16;;;;;;;;;;;;;;;;;;5119190;27;1560;-69
2023/12/07 03:11:41;;;;;;;;;;;;;;;;;;5119567;27;824;-69
2023/12/07 03:14:07;;;;;;;;;;;;;;;;;;5137382;27;835;-68
2023/12/07 03:16:32;;;;;;;;;;;;;;;;;;5137626;27;816;-68
2023/12/07 03:18:57;;;;;;;;;;;;;;;;;;5137212;27;1065;-69
2023/12/07 03:21:22;;;;;;;;;;;;;;;;;;5137637;27;1913;-69
2023/12/07 03:23:49;;;;;;;;;;;;;;;;;;5136259;27;958;-69
2023/12/07 03:26:15;;;;;;;;;;;;;;;;;;5119101;27;908;-69
2023/12/07 03:28:40;;;;;;;;;;;;;;;;;;5136996;27;844;-68
2023/12/07 03:31:05;;;;;;;;;;;;;;;;;;5137347;27;856;-69
2023/12/07 03:33:31;;;;;;;;;;;;;;;;;;5137199;27;1074;-69
2023/12/07 03:35:56;;;;;;;;;;;;;;;;;;5118517;27;1007;-69
2023/12/07 03:38:21;;;;;;;;;;;;;;;;;;5102767;27;1827;-69
2023/12/07 03:40:47;;;;;;;;;;;;;;;;;;5136876;27;1961;-69
2023/12/07 03:43:13;;;;;;;;;;;;;;;;;;5136788;27;769;-69
2023/12/07 03:45:38;;;;;;;;;;;;;;;;;;5136998;27;824;-69
2023/12/07 03:48:04;;;;;;;;;;;;;;;;;;5137358;27;1003;-68
2023/12/07 03:50:29;;;;;;;;;;;;;;;;;;5118389;27;1191;-70
2023/12/07 03:52:54;;;;;;;;;;;;;;;;;;5136844;27;1010;-69
2023/12/07 03:55:20;;;;;;;;;;;;;;;;;;5136870;27;1085;-68
2023/12/07 03:57:45;;;;;;;;;;;;;;;;;;5136694;27;1054;-67
2023/12/07 04:00:11;;;;;;;;;;;;;;;;;;5136597;27;1951;-67
2023/12/07 04:02:36;;;;;;;;;;;;;;;;;;5118219;27;1472;-66
2023/12/07 04:05:02;;;;;;;;;;;;;;;;;;5136458;27;891;-66
2023/12/07 04:07:30;;;;;;;;;;;;;;;;;;5136859;27;982;-65
2023/12/07 04:09:57;;;;;;;;;;;;;;;;;;5136640;27;889;-65
2023/12/07 04:12:23;;;;;;;;;;;;;;;;;;5136754;27;1037;-66
2023/12/07 04:14:48;;;;;;;;;;;;;;;;;;5136776;27;966;-67
2023/12/07 04:17:13;;;;;;;;;;;;;;;;;;5136982;27;848;-66
2023/12/07 04:19:38;;;;;;;;;;;;;;;;;;5137006;27;1905;-66
2023/12/07 04:22:04;;;;;;;;;;;;;;;;;;5118224;27;1152;-66
2023/12/07 04:24:29;;;;;;;;;;;;;;;;;;5136448;27;847;-66
2023/12/07 04:26:54;;;;;;;;;;;;;;;;;;5136360;27;971;-66
2023/12/07 04:29:20;;;;;;;;;;;;;;;;;;5136580;27;899;-66
2023/12/07 04:31:45;;;;;;;;;;;;;;;;;;5135941;27;856;-65
2023/12/07 04:34:10;;;;;;;;;;;;;;;;;;5117961;27;1301;-66
2023/12/07 04:36:36;;;;;;;;;;;;;;;;;;5136511;27;923;-66
2023/12/07 04:39:01;;;;;;;;;;;;;;;;;;5137108;27;883;-66
2023/12/07 04:41:26;;;;;;;;;;;;;;;;;;5136371;27;1959;-66
2023/12/07 04:43:51;;;;;;;;;;;;;;;;;;5136169;27;897;-66
2023/12/07 04:46:16;;;;;;;;;;;;;;;;;;5135969;27;845;-66
2023/12/07 04:48:42;;;;;;;;;;;;;;;;;;5135738;27;928;-66
2023/12/07 04:51:07;;;;;;;;;;;;;;;;;;5136253;27;829;-66
2023/12/07 04:53:33;;;;;;;;;;;;;;;;;;5117565;27;896;-67
2023/12/07 04:55:58;;;;;;;;;;;;;;;;;;5135714;27;871;-67
2023/12/07 04:58:23;;;;;;;;;;;;;;;;;;5135542;27;824;-67
2023/12/07 05:00:49;;;;;;;;;;;;;;;;;;5135825;27;1909;-67
2023/12/07 05:03:14;;;;;;;;;;;;;;;;;;5117557;27;962;-66
2023/12/07 05:05:39;;;;;;;;;;;;;;;;;;5117534;27;947;-66
2023/12/07 05:08:05;;;;;;;;;;;;;;;;;;5136166;27;824;-66
2023/12/07 05:10:30;;;;;;;;;;;;;;;;;;5136154;27;946;-66
2023/12/07 05:12:58;;;;;;;;;;;;;;;;;;5135594;27;1081;-66
2023/12/07 05:15:24;;;;;;;;;;;;;;;;;;5135669;27;860;-66
2023/12/07 05:17:49;;;;;;;;;;;;;;;;;;5135776;27;852;-65
2023/12/07 05:20:15;;;;;;;;;;;;;;;;;;5135581;27;1897;-66
2023/12/07 05:22:40;;;;;;;;;;;;;;;;;;5135340;27;824;-66
2023/12/07 05:25:06;;;;;;;;;;;;;;;;;;5135169;28;1055;-66
2023/12/07 05:27:31;;;;;;;;;;;;;;;;;;5116599;28;1107;-66
2023/12/07 05:29:56;;;;;;;;;;;;;;;;;;5134691;28;1037;-66
2023/12/07 05:32:22;;;;;;;;;;;;;;;;;;5135036;28;907;-66
2023/12/07 05:34:49;;;;;;;;;;;;;;;;;;5134992;28;883;-66
2023/12/07 05:37:15;;;;;;;;;;;;;;;;;;5135271;28;915;-66
2023/12/07 05:39:40;;;;;;;;;;;;;;;;;;5116327;28;1894;-66
2023/12/07 05:42:06;;;;;;;;;;;;;;;;;;5134843;28;883;-66
2023/12/07 05:44:31;;;;;;;;;;;;;;;;;;5134949;28;899;-66
2023/12/07 05:46:57;;;;;;;;;;;;;;;;;;5137088;27;1045;-65
2023/12/07 05:49:23;;;;;;;;;;;;;;;;;;5139637;27;896;-66
2023/12/07 05:51:48;;;;;;;;;;;;;;;;;;5104009;27;1350;-66
2023/12/07 05:54:14;;;;;;;;;;;;;;;;;;5139544;27;883;-66
2023/12/07 05:56:40;;;;;;;;;;;;;;;;;;5121013;27;1313;-66
2023/12/07 05:59:05;;;;;;;;;;;;;;;;;;5139950;27;973;-66
2023/12/07 06:01:31;;;;;;;;;;;;;;;;;;5104016;27;1906;-66
2023/12/07 06:03:57;;;;;;;;;;;;;;;;;;5139108;27;875;-66
2023/12/07 06:06:22;;;;;;;;;;;;;;;;;;5121103;27;855;-66
2023/12/07 06:08:47;;;;;;;;;;;;;;;;;;5139391;27;843;-66
2023/12/07 06:11:13;;;;;;;;;;;;;;;;;;5120785;27;1300;-65
2023/12/07 06:13:38;;;;;;;;;;;;;;;;;;5139581;27;828;-66
2023/12/07 06:16:03;;;;;;;;;;;;;;;;;;5139338;27;804;-66
2023/12/07 06:18:29;;;;;;;;;;;;;;;;;;5140039;27;887;-66
2023/12/07 06:20:54;;;;;;;;;;;;;;;;;;5120461;27;1957;-67
2023/12/07 06:23:20;;;;;;;;;;;;;;;;;;5139770;27;856;-67
2023/12/07 06:25:45;;;;;;;;;;;;;;;;;;5120561;27;1282;-69
2023/12/07 06:28:10;;;;;;;;;;;;;;;;;;5138996;27;848;-69
2023/12/07 06:30:37;;;;;;;;;;;;;;;;;;5139114;27;832;-70
2023/12/07 06:33:02;;;;;;;;;;;;;;;;;;5138916;27;973;-70
2023/12/07 06:35:27;;;;;;;;;;;;;;;;;;5120595;27;1032;-71
2023/12/07 06:37:52;;;;;;;;;;;;;;;;;;5138281;27;896;-71
2023/12/07 06:40:18;;;;;;;;;;;;;;;;;;5138640;27;1897;-70
2023/12/07 06:42:43;;;;;;;;;;;;;;;;;;5138611;27;1227;-70
2023/12/07 06:45:14;;;;;;;;;;;;;;;;;;5120030;27;891;-70
2023/12/07 06:47:39;;;;;;;;;;;;;;;;;;5138796;27;884;-70
2023/12/07 06:50:08;;;;;;;;;;;;;;;;;;5137658;27;924;-70
2023/12/07 06:52:33;;;;;;;;;;;;;;;;;;5137983;27;946;-70
2023/12/07 06:54:58;;;;;;;;;;;;;;;;;;5138031;27;1050;-70
2023/12/07 06:57:24;;;;;;;;;;;;;;;;;;5138004;27;821;-70
2023/12/07 06:59:49;;;;;;;;;;;;;;;;;;5137489;27;1894;-70
2023/12/07 07:02:14;;;;;;;;;;;;;;;;;;5137775;27;797;-70
2023/12/07 07:04:39;;;;;;;;;;;;;;;;;;5138161;27;1153;-70
2023/12/07 07:07:05;;;;;;;;;;;;;;;;;;5137853;27;824;-70
2023/12/07 07:09:30;;;;;;;;;;;;;;;;;;5137542;27;975;-70
2023/12/07 07:11:55;;;;;;;;;;;;;;;;;;5137802;27;960;-70
2023/12/07 07:14:21;;;;;;;;;;;;;;;;;;5137493;27;899;-69
2023/12/07 07:16:46;;;;;;;;;;;;;;;;;;5137115;27;1033;-70
2023/12/07 07:19:11;;;;;;;;;;;;;;;;;;5137368;27;1057;-70
2023/12/07 07:21:36;;;;;;;;;;;;;;;;;;5137566;27;1906;-70
2023/12/07 07:24:02;;;;;;;;;;;;;;;;;;5137371;27;985;-69
2023/12/07 07:26:27;;;;;;;;;;;;;;;;;;5137155;27;1188;-70
2023/12/07 07:28:52;;;;;;;;;;;;;;;;;;5101177;27;1219;-70
2023/12/07 07:31:18;;;;;;;;;;;;;;;;;;5118467;27;1274;-67
2023/12/07 07:33:44;;;;;;;;;;;;;;;;;;5137300;27;926;-67
2023/12/07 07:36:11;;;;;;;;;;;;;;;;;;5119059;27;1012;-66
2023/12/07 07:38:36;;;;;;;;;;;;;;;;;;5137037;27;892;-66
2023/12/07 07:41:01;;;;;;;;;;;;;;;;;;5136668;27;1878;-66
2023/12/07 07:43:27;;;;;;;;;;;;;;;;;;5136805;27;848;-66
2023/12/07 07:45:52;;;;;;;;;;;;;;;;;;5101034;27;1230;-66
2023/12/07 07:48:18;;;;;;;;;;;;;;;;;;5118913;27;864;-66
2023/12/07 07:50:43;;;;;;;;;;;;;;;;;;5137069;27;910;-66
2023/12/07 07:53:09;;;;;;;;;;;;;;;;;;5136857;27;836;-65
2023/12/07 07:55:34;;;;;;;;;;;;;;;;;;5137291;27;896;-65
2023/12/07 07:57:59;;;;;;;;;;;;;;;;;;5137058;27;843;-65
2023/12/07 08:00:25;;;;;;;;;;;;;;;;;;5137190;27;1985;-65
2023/12/07 08:02:51;;;;;;;;;;;;;;;;;;5137344;27;840;-65
2023/12/07 08:05:16;;;;;;;;;;;;;;;;;;5137658;27;820;-65
2023/12/07 08:07:42;;;;;;;;;;;;;;;;;;5137005;27;820;-66
2023/12/07 08:10:08;;;;;;;;;;;;;;;;;;5136498;27;961;-66
2023/12/07 08:12:34;;;;;;;;;;;;;;;;;;5137166;27;847;-65
2023/12/07 08:15:00;;;;;;;;;;;;;;;;;;5136945;27;839;-66
2023/12/07 08:17:26;;;;;;;;;;;;;;;;;;5136627;27;828;-66
2023/12/07 08:19:51;;;;;;;;;;;;;;;;;;5136512;27;1894;-66
2023/12/07 08:22:17;;;;;;;;;;;;;;;;;;5135756;27;1049;-66
2023/12/07 08:24:42;;;;;;;;;;;;;;;;;;5135823;27;840;-66
2023/12/07 08:27:07;;;;;;;;;;;;;;;;;;5136112;27;1112;-65
2023/12/07 08:29:33;;;;;;;;;;;;;;;;;;5136049;27;884;-66
2023/12/07 08:31:58;;;;;;;;;;;;;;;;;;5133028;27;1120;-66
2023/12/07 08:34:24;;;;;;;;;;;;;;;;;;5135992;27;825;-66
2023/12/07 08:36:50;;;;;;;;;;;;;;;;;;5135852;27;921;-66
2023/12/07 08:39:15;;;;;;;;;;;;;;;;;;5135222;27;844;-66
2023/12/07 08:41:40;;;;;;;;;;;;;;;;;;5135530;27;1963;-66
2023/12/07 08:44:05;;;;;;;;;;;;;;;;;;5135957;27;789;-65
2023/12/07 08:46:31;;;;;;;;;;;;;;;;;;5100634;27;1259;-66
2023/12/07 08:48:56;;;;;;;;;;;;;;;;;;5135764;27;831;-65
2023/12/07 08:51:22;;;;;;;;;;;;;;;;;;5135592;27;812;-65
2023/12/07 08:53:47;;;;;;;;;;;;;;;;;;5136110;27;879;-66
2023/12/07 08:56:12;;;;;;;;;;;;;;;;;;5135565;27;1275;-66
2023/12/07 08:58:38;;;;;;;;;;;;;;;;;;5135605;27;1049;-67
2023/12/07 09:01:03;;;;;;;;;;;;;;;;;;5099917;27;1955;-65
2023/12/07 09:03:31;;;;;;;;;;;;;;;;;;5135348;27;820;-65
2023/12/07 09:05:57;;;;;;;;;;;;;;;;;;5135107;27;856;-65
2023/12/07 09:08:22;;;;;;;;;;;;;;;;;;5134917;27;855;-66
2023/12/07 09:10:49;;;;;;;;;;;;;;;;;;5134827;27;863;-67
2023/12/07 09:13:15;;;;;;;;;;;;;;;;;;5135005;27;836;-66
2023/12/07 09:15:40;;;;;;;;;;;;;;;;;;5134936;27;931;-66
2023/12/07 09:18:05;;;;;;;;;;;;;;;;;;5135176;27;1069;-66
2023/12/07 09:20:31;;;;;;;;;;;;;;;;;;5135030;27;1909;-66
2023/12/07 09:22:57;;;;;;;;;;;;;;;;;;5134586;27;919;-66
2023/12/07 09:25:22;;;;;;;;;;;;;;;;;;5135118;27;887;-66
2023/12/07 09:27:48;;;;;;;;;;;;;;;;;;5134648;28;1046;-66
2023/12/07 09:30:13;;;;;;;;;;;;;;;;;;5117398;28;1427;-66
2023/12/07 09:32:42;;;;;;;;;;;;;;;;;;5135728;28;868;-66
2023/12/07 09:35:08;;;;;;;;;;;;;;;;;;5135015;27;890;-66
2023/12/07 09:37:34;;;;;;;;;;;;;;;;;;5117028;27;1309;-66
2023/12/07 09:39:59;;;;;;;;;;;;;;;;;;5116151;28;1905;-66
2023/12/07 09:42:25;;;;;;;;;;;;;;;;;;5099476;28;1246;-66
2023/12/07 09:44:50;;;;;;;;;;;;;;;;;;5134915;28;1078;-66
2023/12/07 09:47:16;;;;;;;;;;;;;;;;;;5135144;28;935;-65
2023/12/07 09:49:41;;;;;;;;;;;;;;;;;;5134838;28;966;-65
2023/12/07 09:52:07;;;;;;;;;;;;;;;;;;5116132;27;1179;-65
2023/12/07 09:54:35;;;;;;;;;;;;;;;;;;5116096;28;915;-65
2023/12/07 09:57:00;;;;;;;;;;;;;;;;;;5115660;28;1203;-65
2023/12/07 09:59:25;;;;;;;;;;;;;;;;;;5134960;27;871;-65
2023/12/07 10:01:50;;;;;;;;;;;;;;;;;;5134859;28;1897;-65
2023/12/07 10:04:16;;;;;;;;;;;;;;;;;;5115646;28;1218;-67
2023/12/07 10:06:47;;;;;;;;;;;;;;;;;;5134790;27;848;-65
2023/12/07 10:09:13;;;;;;;;;;;;;;;;;;5134276;28;991;-66
2023/12/07 10:11:38;;;;;;;;;;;;;;;;;;5135006;27;868;-66
2023/12/07 10:14:05;;;;;;;;;;;;;;;;;;5135058;27;878;-66
2023/12/07 10:16:34;;;;;;;;;;;;;;;;;;5135439;27;978;-65
2023/12/07 10:19:13;;;;;;;;;;;;;;;;;;5135415;27;874;-66
2023/12/07 10:21:38;;;;;;;;;;;;;;;;;;5117170;28;1963;-66
2023/12/07 10:24:04;;;;;;;;;;;;;;;;;;5117218;28;746;-66
2023/12/07 10:26:30;;;;;;;;;;;;;;;;;;5135602;28;875;-65
2023/12/07 10:28:55;;;;;;;;;;;;;;;;;;5135413;28;848;-66
2023/12/07 10:31:21;;;;;;;;;;;;;;;;;;5135498;28;792;-66
2023/12/07 10:33:47;;;;;;;;;;;;;;;;;;5138050;27;836;-65
2023/12/07 10:36:13;;;;;;;;;;;;;;;;;;5139090;27;896;-65
2023/12/07 10:38:41;;;;;;;;;;;;;;;;;;5138897;27;993;-66
2023/12/07 10:41:09;;;;;;;;;;;;;;;;;;5138552;27;1870;-66
2023/12/07 10:43:36;;;;;;;;;;;;;;;;;;5138907;27;931;-65
2023/12/07 10:46:02;;;;;;;;;;;;;;;;;;5138317;27;959;-65
2023/12/07 10:48:31;;;;;;;;;;;;;;;;;;5119839;27;1285;-66
2023/12/07 10:50:59;;;;;;;;;;;;;;;;;;5119647;27;955;-66
2023/12/07 10:53:32;;;;;;;;;;;;;;;;;;5118118;27;1452;-66
2023/12/07 10:56:01;;;;;;;;;;;;;;;;;;5138353;27;836;-67
2023/12/07 10:58:27;;;;;;;;;;;;;;;;;;5138260;27;840;-66
2023/12/07 11:00:53;;;;;;;;;;;;;;;;;;5137743;27;1893;-67
2023/12/07 11:03:20;;;;;;;;;;;;;;;;;;5137467;27;919;-66
2023/12/07 11:05:48;;;;;;;;;;;;;;;;;;5138259;27;766;-66
2023/12/07 11:08:25;;;;;;;;;;;;;;;;;;5137424;27;899;-67
2023/12/07 11:10:57;;;;;;;;;;;;;;;;;;5136474;27;982;-66
2023/12/07 11:13:24;;;;;;;;;;;;;;;;;;5136724;27;871;-66
2023/12/07 11:15:49;;;;;;;;;;;;;;;;;;5137763;27;1034;-67
2023/12/07 11:18:15;;;;;;;;;;;;;;;;;;5136614;27;1234;-67
2023/12/07 11:20:47;;;;;;;;;;;;;;;;;;5133753;27;1964;-67
2023/12/07 11:23:16;;;;;;;;;;;;;;;;;;5115334;27;1156;-67
2023/12/07 11:25:42;;;;;;;;;;;;;;;;;;5134291;27;1148;-66
2023/12/07 11:28:10;;;;;;;;;;;;;;;;;;5134453;27;1148;-66
2023/12/07 11:30:36;;;;;;;;;;;;;;;;;;5134428;27;1175;-67
2023/12/07 11:33:05;;;;;;;;;;;;;;;;;;5136746;27;915;-67
2023/12/07 11:35:31;;;;;;;;;;;;;;;;;;5136947;27;1055;-66
2023/12/07 11:38:06;;;;;;;;;;;;;;;;;;5118365;27;1167;-65
2023/12/07 11:40:32;;;;;;;;;;;;;;;;;;5118547;27;1893;-66
2023/12/07 11:42:58;;;;;;;;;;;;;;;;;;5119166;27;1389;-65
2023/12/07 11:45:40;;;;;;;;;;;;;;;;;;5118113;27;1294;-66
2023/12/07 11:48:17;;;;;;;;;;;;;;;;;;5119254;27;1396;-66
2023/12/07 11:51:01;;;;;;;;;;;;;;;;;;5118414;27;1428;-66
2023/12/07 11:53:31;;;;;;;;;;;;;;;;;;5118470;27;1331;-66
2023/12/07 11:55:57;;;;;;;;;;;;;;;;;;5136870;27;863;-66
2023/12/07 11:58:23;;;;;;;;;;;;;;;;;;5136884;27;828;-66
2023/12/07 12:00:51;;;;;;;;;;;;;;;;;;5136941;27;1910;-65
2023/12/07 12:03:16;;;;;;;;;;;;;;;;;;5118661;27;1175;-66
2023/12/07 12:05:43;;;;;;;;;;;;;;;;;;5119402;27;836;-66
2023/12/07 12:08:08;;;;;;;;;;;;;;;;;;5136569;27;1167;-66
2023/12/07 12:10:33;;;;;;;;;;;;;;;;;;5132358;27;1331;-67
2023/12/07 12:13:03;;;;;;;;;;;;;;;;;;5133222;27;1258;-66
2023/12/07 12:15:29;;;;;;;;;;;;;;;;;;5134377;27;1207;-66
2023/12/07 12:17:55;;;;;;;;;;;;;;;;;;5134370;27;1191;-66
2023/12/07 12:20:20;;;;;;;;;;;;;;;;;;5133610;27;1870;-66
2023/12/07 12:22:46;;;;;;;;;;;;;;;;;;5133348;27;1274;-66
2023/12/07 12:25:12;;;;;;;;;;;;;;;;;;5096524;28;1346;-67
2023/12/07 12:27:38;;;;;;;;;;;;;;;;;;5116364;28;914;-66
2023/12/07 12:30:03;;;;;;;;;;;;;;;;;;5098109;28;1427;-67
2023/12/07 12:32:41;;;;;;;;;;;;;;;;;;5116028;28;953;-67
2023/12/07 12:35:07;;;;;;;;;;;;;;;;;;5115979;28;938;-67
2023/12/07 12:37:33;;;;;;;;;;;;;;;;;;5115444;28;883;-66
2023/12/07 12:40:00;;;;;;;;;;;;;;;;;;5115441;28;1972;-66
2023/12/07 12:42:25;;;;;;;;;;;;;;;;;;5115345;28;964;-65
2023/12/07 12:44:50;;;;;;;;;;;;;;;;;;5115290;28;907;-69
2023/12/07 12:47:16;;;;;;;;;;;;;;;;;;5112709;27;1296;-70
2023/12/07 12:49:44;;;;;;;;;;;;;;;;;;5131821;27;1219;-70
2023/12/07 12:52:10;;;;;;;;;;;;;;;;;;5132162;27;1164;-69
2023/12/07 12:54:35;;;;;;;;;;;;;;;;;;5114158;27;1143;-69
2023/12/07 12:57:01;;;;;;;;;;;;;;;;;;5131622;27;1163;-70
2023/12/07 12:59:27;;;;;;;;;;;;;;;;;;5096330;27;1235;-70
2023/12/07 13:01:52;;;;;;;;;;;;;;;;;;5112616;27;1960;-70
2023/12/07 13:04:17;;;;;;;;;;;;;;;;;;5135453;27;1038;-71
2023/12/07 13:06:43;;;;;;;;;;;;;;;;;;5135806;27;817;-70
2023/12/07 13:09:08;;;;;;;;;;;;;;;;;;5134405;27;1218;-70
2023/12/07 13:11:34;;;;;;;;;;;;;;;;;;5131367;27;1167;-70
2023/12/07 13:13:59;;;;;;;;;;;;;;;;;;5131690;27;1160;-70
2023/12/07 13:16:24;;;;;;;;;;;;;;;;;;5132239;27;1167;-69
2023/12/07 13:18:50;;;;;;;;;;;;;;;;;;5131520;27;1333;-69
2023/12/07 13:21:15;;;;;;;;;;;;;;;;;;5131695;27;1914;-69
2023/12/07 13:23:41;;;;;;;;;;;;;;;;;;5131644;27;1156;-70
2023/12/07 13:26:06;;;;;;;;;;;;;;;;;;5131109;27;1139;-69
2023/12/07 13:28:31;;;;;;;;;;;;;;;;;;5131694;27;1187;-70
2023/12/07 13:30:57;;;;;;;;;;;;;;;;;;5132391;27;1207;-70
2023/12/07 13:33:23;;;;;;;;;;;;;;;;;;5134520;27;1219;-70
2023/12/07 13:35:48;;;;;;;;;;;;;;;;;;5135272;28;879;-70
2023/12/07 13:38:13;;;;;;;;;;;;;;;;;;5135270;28;810;-70
2023/12/07 13:40:39;;;;;;;;;;;;;;;;;;5135168;28;1901;-70
2023/12/07 13:43:04;;;;;;;;;;;;;;;;;;5116886;28;971;-70
2023/12/07 13:45:29;;;;;;;;;;;;;;;;;;5135692;28;796;-70
2023/12/07 13:47:55;;;;;;;;;;;;;;;;;;5135764;28;927;-69
2023/12/07 13:50:20;;;;;;;;;;;;;;;;;;5135927;28;875;-70
2023/12/07 13:52:45;;;;;;;;;;;;;;;;;;5135013;28;1175;-69
2023/12/07 13:55:10;;;;;;;;;;;;;;;;;;5134447;28;911;-69
2023/12/07 13:57:36;;;;;;;;;;;;;;;;;;5117867;28;1352;-70
2023/12/07 14:00:01;;;;;;;;;;;;;;;;;;5116792;28;1971;-69
2023/12/07 14:02:28;;;;;;;;;;;;;;;;;;5135713;28;824;-70
2023/12/07 14:04:54;;;;;;;;;;;;;;;;;;5135722;28;832;-70
2023/12/07 14:07:20;;;;;;;;;;;;;;;;;;5117866;27;1243;-70
2023/12/07 14:09:47;;;;;;;;;;;;;;;;;;5139442;27;856;-70
2023/12/07 14:12:14;;;;;;;;;;;;;;;;;;5118075;27;1743;-70
2023/12/07 14:14:40;;;;;;;;;;;;;;;;;;5135540;27;1202;-70
2023/12/07 14:17:06;;;;;;;;;;;;;;;;;;5135954;27;1254;-70
2023/12/07 14:19:31;;;;;;;;;;;;;;;;;;5136280;27;1175;-70
2023/12/07 14:21:56;;;;;;;;;;;;;;;;;;5134401;27;1897;-70
2023/12/07 14:24:23;;;;;;;;;;;;;;;;;;5138310;27;978;-69
2023/12/07 14:26:49;;;;;;;;;;;;;;;;;;5138495;27;884;-69
2023/12/07 14:29:15;;;;;;;;;;;;;;;;;;5138907;27;840;-69
2023/12/07 14:31:44;;;;;;;;;;;;;;;;;;5139004;27;903;-70
2023/12/07 14:34:10;;;;;;;;;;;;;;;;;;5138931;27;788;-69
2023/12/07 14:36:36;;;;;;;;;;;;;;;;;;5138303;27;956;-69
2023/12/07 14:39:04;;;;;;;;;;;;;;;;;;5138931;27;880;-71
2023/12/07 14:41:30;;;;;;;;;;;;;;;;;;5138680;27;2251;-68
2023/12/07 14:43:55;;;;;;;;;;;;;;;;;;5136376;27;1111;-69
2023/12/07 14:46:20;;;;;;;;;;;;;;;;;;5116872;27;1179;-69
2023/12/07 14:48:45;;;;;;;;;;;;;;;;;;5116906;27;1239;-70
2023/12/07 14:51:11;;;;;;;;;;;;;;;;;;5135661;27;1155;-69
2023/12/07 14:53:36;;;;;;;;;;;;;;;;;;5135481;27;1288;-71
2023/12/07 14:56:01;;;;;;;;;;;;;;;;;;5134899;27;1108;-69
2023/12/07 14:58:27;;;;;;;;;;;;;;;;;;5116557;27;1218;-69
2023/12/07 15:00:53;;;;;;;;;;;;;;;;;;5116731;27;1882;-70
2023/12/07 15:03:19;;;;;;;;;;;;;;;;;;5135055;27;1116;-69
2023/12/07 15:05:44;;;;;;;;;;;;;;;;;;5138650;27;904;-68
2023/12/07 15:08:10;;;;;;;;;;;;;;;;;;5138937;27;848;-70
2023/12/07 15:10:36;;;;;;;;;;;;;;;;;;5138243;27;848;-70
2023/12/07 15:13:02;;;;;;;;;;;;;;;;;;5137214;27;1230;-70
2023/12/07 15:15:27;;;;;;;;;;;;;;;;;;5118012;27;849;-70
2023/12/07 15:17:52;;;;;;;;;;;;;;;;;;5119817;27;1074;-67
2023/12/07 15:20:17;;;;;;;;;;;;;;;;;;5137098;27;1882;-67
2023/12/07 15:22:44;;;;;;;;;;;;;;;;;;5119595;27;1073;-67
2023/12/07 15:25:10;;;;;;;;;;;;;;;;;;5138112;27;894;-68
2023/12/07 15:27:35;;;;;;;;;;;;;;;;;;5138385;27;922;-67
2023/12/07 15:30:00;;;;;;;;;;;;;;;;;;5138352;27;911;-67
2023/12/07 15:32:26;;;;;;;;;;;;;;;;;;5119975;27;1259;-68
2023/12/07 15:34:51;;;;;;;;;;;;;;;;;;5138195;27;1096;-67
2023/12/07 15:37:17;;;;;;;;;;;;;;;;;;5138147;27;942;-66
2023/12/07 15:39:43;;;;;;;;;;;;;;;;;;5119563;27;1478;-70
2023/12/07 15:42:09;;;;;;;;;;;;;;;;;;5120259;27;1964;-70
2023/12/07 15:44:34;;;;;;;;;;;;;;;;;;5137893;27;888;-70
2023/12/07 15:46:59;;;;;;;;;;;;;;;;;;5137851;27;903;-70
2023/12/07 15:49:24;;;;;;;;;;;;;;;;;;5138301;27;919;-70
2023/12/07 15:51:50;;;;;;;;;;;;;;;;;;5138527;27;840;-70
2023/12/07 15:54:15;;;;;;;;;;;;;;;;;;5119960;27;951;-70
2023/12/07 15:56:40;;;;;;;;;;;;;;;;;;5138665;27;843;-70
2023/12/07 15:59:06;;;;;;;;;;;;;;;;;;5137895;27;816;-69
2023/12/07 16:01:31;;;;;;;;;;;;;;;;;;5138273;27;1910;-71
2023/12/07 16:03:56;;;;;;;;;;;;;;;;;;5119517;27;1648;-71
2023/12/07 16:06:22;;;;;;;;;;;;;;;;;;5137961;27;1045;-72
2023/12/07 16:08:47;;;;;;;;;;;;;;;;;;5137435;27;840;-69
2023/12/07 16:11:12;;;;;;;;;;;;;;;;;;5137087;27;848;-70
2023/12/07 16:13:38;;;;;;;;;;;;;;;;;;5137755;27;785;-68
2023/12/07 16:16:03;;;;;;;;;;;;;;;;;;5135283;27;828;-69
2023/12/07 16:18:28;;;;;;;;;;;;;;;;;;5137023;27;840;-68
2023/12/07 16:20:53;;;;;;;;;;;;;;;;;;5137052;27;1961;-67
2023/12/07 16:23:19;;;;;;;;;;;;;;;;;;5118863;27;970;-68
2023/12/07 16:25:44;;;;;;;;;;;;;;;;;;5137036;27;1021;-68
2023/12/07 16:28:09;;;;;;;;;;;;;;;;;;5136888;27;887;-63
2023/12/07 16:30:35;;;;;;;;;;;;;;;;;;5136083;27;860;-65
2023/12/07 16:33:00;;;;;;;;;;;;;;;;;;5136890;27;820;-66
2023/12/07 16:35:26;;;;;;;;;;;;;;;;;;5118486;27;1198;-66
2023/12/07 16:37:51;;;;;;;;;;;;;;;;;;5118695;27;1278;-67
2023/12/07 16:40:16;;;;;;;;;;;;;;;;;;5136899;27;1898;-67
2023/12/07 16:42:41;;;;;;;;;;;;;;;;;;5135432;27;916;-66
2023/12/07 16:45:07;;;;;;;;;;;;;;;;;;5135925;27;832;-67
2023/12/07 16:47:32;;;;;;;;;;;;;;;;;;5135981;27;808;-67
2023/12/07 16:49:59;;;;;;;;;;;;;;;;;;5135601;27;997;-67
2023/12/07 16:52:24;;;;;;;;;;;;;;;;;;5117567;27;871;-66
2023/12/07 16:54:49;;;;;;;;;;;;;;;;;;5117723;27;840;-66
2023/12/07 16:57:15;;;;;;;;;;;;;;;;;;5135195;27;836;-67
2023/12/07 16:59:41;;;;;;;;;;;;;;;;;;5135762;27;848;-67
2023/12/07 17:02:06;;;;;;;;;;;;;;;;;;5135631;27;1947;-67
2023/12/07 17:04:31;;;;;;;;;;;;;;;;;;5117100;27;1097;-68